sensor_id;sensor_type;location;lat;lon;timestamp;P1;durP1;ratioP1;P2;durP2;ratioP2
71777;SDS011;59609;52.430;4.668;2023-03-03T00:01:06;13.57;;;6.38;;
71777;SDS011;59609;52.430;4.668;2023-03-03T00:03:31;12.60;;;5.65;;
71777;SDS011;59609;52.430;4.668;2023-03-03T00:05:57;14.25;;;6.05;;
71777;SDS011;59609;52.430;4.668;2023-03-03T00:08:23;13.35;;;5.60;;
71777;SDS011;59609;52.430;4.668;2023-03-03T00:10:48;11.40;;;5.70;;
71777;SDS011;59609;52.430;4.668;2023-03-03T00:13:18;11.85;;;5.45;;
71777;SDS011;59609;52.430;4.668;2023-03-03T00:15:49;12.80;;;4.97;;
71777;SDS011;59609;52.430;4.668;2023-03-03T00:18:17;11.70;;;5.28;;
71777;SDS011;59609;52.430;4.668;2023-03-03T00:20:57;11.93;;;4.93;;
71777;SDS011;59609;52.430;4.668;2023-03-03T00:25:59;11.32;;;4.95;;
71777;SDS011;59609;52.430;4.668;2023-03-03T00:28:29;10.45;;;4.80;;
71777;SDS011;59609;52.430;4.668;2023-03-03T00:30:57;10.38;;;4.28;;
71777;SDS011;59609;52.430;4.668;2023-03-03T00:33:26;9.68;;;4.30;;
71777;SDS011;59609;52.430;4.668;2023-03-03T00:35:58;10.88;;;4.07;;
71777;SDS011;59609;52.430;4.668;2023-03-03T00:38:46;8.73;;;3.88;;
71777;SDS011;59609;52.430;4.668;2023-03-03T00:41:17;7.57;;;3.50;;
71777;SDS011;59609;52.430;4.668;2023-03-03T00:43:46;11.15;;;5.30;;
71777;SDS011;59609;52.430;4.668;2023-03-03T00:46:14;14.52;;;5.13;;
71777;SDS011;59609;52.430;4.668;2023-03-03T00:48:46;9.60;;;4.13;;
71777;SDS011;59609;52.430;4.668;2023-03-03T00:53:46;10.52;;;4.50;;
71777;SDS011;59609;52.430;4.668;2023-03-03T00:56:12;8.45;;;4.10;;
71777;SDS011;59609;52.430;4.668;2023-03-03T00:58:37;10.93;;;3.45;;
71777;SDS011;59609;52.430;4.668;2023-03-03T01:01:03;10.60;;;3.10;;
71777;SDS011;59609;52.430;4.668;2023-03-03T01:03:28;8.40;;;3.33;;
71777;SDS011;59609;52.430;4.668;2023-03-03T01:05:56;11.18;;;2.97;;
71777;SDS011;59609;52.430;4.668;2023-03-03T01:08:21;6.70;;;3.13;;
71777;SDS011;59609;52.430;4.668;2023-03-03T01:10:48;6.30;;;3.05;;
71777;SDS011;59609;52.430;4.668;2023-03-03T01:13:24;6.63;;;2.85;;
71777;SDS011;59609;52.430;4.668;2023-03-03T01:15:52;7.68;;;3.35;;
71777;SDS011;59609;52.430;4.668;2023-03-03T01:18:18;5.72;;;2.72;;
71777;SDS011;59609;52.430;4.668;2023-03-03T01:20:44;6.70;;;2.65;;
71777;SDS011;59609;52.430;4.668;2023-03-03T01:23:09;6.13;;;2.70;;
71777;SDS011;59609;52.430;4.668;2023-03-03T01:25:35;5.85;;;2.65;;
71777;SDS011;59609;52.430;4.668;2023-03-03T01:28:01;6.90;;;3.00;;
71777;SDS011;59609;52.430;4.668;2023-03-03T01:30:27;7.05;;;2.50;;
71777;SDS011;59609;52.430;4.668;2023-03-03T01:32:52;6.97;;;3.25;;
71777;SDS011;59609;52.430;4.668;2023-03-03T01:35:18;6.93;;;2.50;;
71777;SDS011;59609;52.430;4.668;2023-03-03T01:37:43;6.32;;;2.55;;
71777;SDS011;59609;52.430;4.668;2023-03-03T01:40:20;5.85;;;2.10;;
71777;SDS011;59609;52.430;4.668;2023-03-03T01:42:49;4.63;;;2.28;;
71777;SDS011;59609;52.430;4.668;2023-03-03T01:45:22;7.10;;;2.75;;
71777;SDS011;59609;52.430;4.668;2023-03-03T01:50:51;37.65;;;15.63;;
71777;SDS011;59609;52.430;4.668;2023-03-03T01:53:21;10.65;;;3.88;;
71777;SDS011;59609;52.430;4.668;2023-03-03T01:55:51;7.75;;;3.45;;
71777;SDS011;59609;52.430;4.668;2023-03-03T01:58:22;4.60;;;2.17;;
71777;SDS011;59609;52.430;4.668;2023-03-03T02:00:58;6.55;;;2.33;;
71777;SDS011;59609;52.430;4.668;2023-03-03T02:03:26;5.95;;;2.13;;
71777;SDS011;59609;52.430;4.668;2023-03-03T02:05:54;3.17;;;1.75;;
71777;SDS011;59609;52.430;4.668;2023-03-03T02:08:24;4.78;;;1.60;;
71777;SDS011;59609;52.430;4.668;2023-03-03T02:10:55;3.17;;;1.65;;
71777;SDS011;59609;52.430;4.668;2023-03-03T02:13:21;10.07;;;2.03;;
71777;SDS011;59609;52.430;4.668;2023-03-03T02:15:47;5.25;;;1.83;;
71777;SDS011;59609;52.430;4.668;2023-03-03T02:18:13;2.88;;;1.60;;
71777;SDS011;59609;52.430;4.668;2023-03-03T02:23:26;3.38;;;1.42;;
71777;SDS011;59609;52.430;4.668;2023-03-03T02:28:34;1.60;;;1.00;;
71777;SDS011;59609;52.430;4.668;2023-03-03T02:31:02;3.28;;;1.23;;
71777;SDS011;59609;52.430;4.668;2023-03-03T02:33:31;3.50;;;1.42;;
71777;SDS011;59609;52.430;4.668;2023-03-03T02:35:56;5.75;;;1.50;;
71777;SDS011;59609;52.430;4.668;2023-03-03T02:46:26;2.70;;;1.23;;
71777;SDS011;59609;52.430;4.668;2023-03-03T02:48:52;3.47;;;1.20;;
71777;SDS011;59609;52.430;4.668;2023-03-03T02:51:18;6.63;;;0.98;;
71777;SDS011;59609;52.430;4.668;2023-03-03T02:53:43;0.98;;;0.75;;
71777;SDS011;59609;52.430;4.668;2023-03-03T02:56:09;2.63;;;1.17;;
71777;SDS011;59609;52.430;4.668;2023-03-03T02:58:35;2.15;;;1.00;;
71777;SDS011;59609;52.430;4.668;2023-03-03T03:01:01;1.88;;;0.98;;
71777;SDS011;59609;52.430;4.668;2023-03-03T03:03:26;2.67;;;1.00;;
71777;SDS011;59609;52.430;4.668;2023-03-03T03:05:52;3.03;;;1.20;;
71777;SDS011;59609;52.430;4.668;2023-03-03T03:08:17;6.68;;;0.85;;
71777;SDS011;59609;52.430;4.668;2023-03-03T03:10:43;1.70;;;1.13;;
71777;SDS011;59609;52.430;4.668;2023-03-03T03:13:08;1.30;;;0.95;;
71777;SDS011;59609;52.430;4.668;2023-03-03T03:15:34;3.28;;;0.80;;
71777;SDS011;59609;52.430;4.668;2023-03-03T03:18:00;3.50;;;1.05;;
71777;SDS011;59609;52.430;4.668;2023-03-03T03:20:25;3.08;;;1.20;;
71777;SDS011;59609;52.430;4.668;2023-03-03T03:22:50;5.45;;;1.05;;
71777;SDS011;59609;52.430;4.668;2023-03-03T03:25:16;6.22;;;1.20;;
71777;SDS011;59609;52.430;4.668;2023-03-03T03:27:41;3.88;;;1.33;;
71777;SDS011;59609;52.430;4.668;2023-03-03T03:30:07;1.70;;;1.38;;
71777;SDS011;59609;52.430;4.668;2023-03-03T03:32:32;2.97;;;0.93;;
71777;SDS011;59609;52.430;4.668;2023-03-03T03:34:58;2.25;;;0.82;;
71777;SDS011;59609;52.430;4.668;2023-03-03T03:37:23;2.10;;;1.00;;
71777;SDS011;59609;52.430;4.668;2023-03-03T03:39:49;1.00;;;0.80;;
71777;SDS011;59609;52.430;4.668;2023-03-03T03:42:14;1.20;;;0.70;;
71777;SDS011;59609;52.430;4.668;2023-03-03T03:44:40;4.90;;;1.02;;
71777;SDS011;59609;52.430;4.668;2023-03-03T03:47:05;2.25;;;0.98;;
71777;SDS011;59609;52.430;4.668;2023-03-03T03:49:31;2.13;;;0.93;;
71777;SDS011;59609;52.430;4.668;2023-03-03T03:51:56;2.83;;;0.93;;
71777;SDS011;59609;52.430;4.668;2023-03-03T03:54:21;1.70;;;0.77;;
71777;SDS011;59609;52.430;4.668;2023-03-03T03:56:47;3.80;;;0.95;;
71777;SDS011;59609;52.430;4.668;2023-03-03T03:59:12;2.67;;;0.98;;
71777;SDS011;59609;52.430;4.668;2023-03-03T04:01:37;1.67;;;1.00;;
71777;SDS011;59609;52.430;4.668;2023-03-03T04:04:03;1.83;;;1.00;;
71777;SDS011;59609;52.430;4.668;2023-03-03T04:06:29;1.45;;;0.90;;
71777;SDS011;59609;52.430;4.668;2023-03-03T04:08:55;1.77;;;0.80;;
71777;SDS011;59609;52.430;4.668;2023-03-03T04:11:21;1.73;;;1.10;;
71777;SDS011;59609;52.430;4.668;2023-03-03T04:13:47;1.10;;;0.75;;
71777;SDS011;59609;52.430;4.668;2023-03-03T04:16:12;5.03;;;1.33;;
71777;SDS011;59609;52.430;4.668;2023-03-03T04:18:37;2.40;;;0.77;;
71777;SDS011;59609;52.430;4.668;2023-03-03T04:21:03;3.35;;;0.82;;
71777;SDS011;59609;52.430;4.668;2023-03-03T04:23:28;2.13;;;0.88;;
71777;SDS011;59609;52.430;4.668;2023-03-03T04:25:54;1.65;;;1.10;;
71777;SDS011;59609;52.430;4.668;2023-03-03T04:28:19;2.38;;;1.17;;
71777;SDS011;59609;52.430;4.668;2023-03-03T04:30:46;1.52;;;1.00;;
71777;SDS011;59609;52.430;4.668;2023-03-03T04:33:11;2.42;;;1.00;;
71777;SDS011;59609;52.430;4.668;2023-03-03T04:35:37;3.78;;;1.05;;
71777;SDS011;59609;52.430;4.668;2023-03-03T04:38:02;3.13;;;1.30;;
71777;SDS011;59609;52.430;4.668;2023-03-03T04:40:29;1.85;;;1.20;;
71777;SDS011;59609;52.430;4.668;2023-03-03T04:42:55;2.00;;;0.93;;
71777;SDS011;59609;52.430;4.668;2023-03-03T04:45:20;1.52;;;1.05;;
71777;SDS011;59609;52.430;4.668;2023-03-03T04:47:45;4.68;;;1.38;;
71777;SDS011;59609;52.430;4.668;2023-03-03T04:50:11;1.95;;;1.17;;
71777;SDS011;59609;52.430;4.668;2023-03-03T04:52:36;2.78;;;1.33;;
71777;SDS011;59609;52.430;4.668;2023-03-03T04:55:02;3.08;;;1.35;;
71777;SDS011;59609;52.430;4.668;2023-03-03T04:57:28;2.15;;;1.10;;
71777;SDS011;59609;52.430;4.668;2023-03-03T04:59:53;2.45;;;1.05;;
71777;SDS011;59609;52.430;4.668;2023-03-03T05:02:19;5.10;;;1.50;;
71777;SDS011;59609;52.430;4.668;2023-03-03T05:04:44;2.70;;;0.95;;
71777;SDS011;59609;52.430;4.668;2023-03-03T05:07:10;1.48;;;1.30;;
71777;SDS011;59609;52.430;4.668;2023-03-03T05:09:35;4.00;;;1.33;;
71777;SDS011;59609;52.430;4.668;2023-03-03T05:12:01;2.53;;;1.50;;
71777;SDS011;59609;52.430;4.668;2023-03-03T05:14:26;4.68;;;1.95;;
71777;SDS011;59609;52.430;4.668;2023-03-03T05:16:52;2.35;;;1.30;;
71777;SDS011;59609;52.430;4.668;2023-03-03T05:19:17;3.08;;;1.50;;
71777;SDS011;59609;52.430;4.668;2023-03-03T05:21:43;2.45;;;1.48;;
71777;SDS011;59609;52.430;4.668;2023-03-03T05:24:09;4.75;;;2.05;;
71777;SDS011;59609;52.430;4.668;2023-03-03T05:26:36;3.15;;;1.77;;
71777;SDS011;59609;52.430;4.668;2023-03-03T05:29:02;2.88;;;1.63;;
71777;SDS011;59609;52.430;4.668;2023-03-03T05:31:28;3.00;;;1.83;;
71777;SDS011;59609;52.430;4.668;2023-03-03T05:33:53;3.83;;;1.75;;
71777;SDS011;59609;52.430;4.668;2023-03-03T05:36:19;4.68;;;1.85;;
71777;SDS011;59609;52.430;4.668;2023-03-03T05:38:44;3.15;;;1.77;;
71777;SDS011;59609;52.430;4.668;2023-03-03T05:41:09;2.05;;;1.85;;
71777;SDS011;59609;52.430;4.668;2023-03-03T05:43:35;2.75;;;2.10;;
71777;SDS011;59609;52.430;4.668;2023-03-03T05:46:00;3.05;;;1.85;;
71777;SDS011;59609;52.430;4.668;2023-03-03T05:48:26;5.63;;;2.35;;
71777;SDS011;59609;52.430;4.668;2023-03-03T05:50:52;2.40;;;2.10;;
71777;SDS011;59609;52.430;4.668;2023-03-03T05:53:17;4.13;;;1.83;;
71777;SDS011;59609;52.430;4.668;2023-03-03T05:55:43;5.28;;;2.00;;
71777;SDS011;59609;52.430;4.668;2023-03-03T05:58:08;3.75;;;1.75;;
71777;SDS011;59609;52.430;4.668;2023-03-03T06:00:33;3.15;;;1.70;;
71777;SDS011;59609;52.430;4.668;2023-03-03T06:02:59;3.67;;;2.15;;
71777;SDS011;59609;52.430;4.668;2023-03-03T06:05:25;4.20;;;2.00;;
71777;SDS011;59609;52.430;4.668;2023-03-03T06:07:51;3.92;;;2.10;;
71777;SDS011;59609;52.430;4.668;2023-03-03T06:10:16;4.90;;;2.03;;
71777;SDS011;59609;52.430;4.668;2023-03-03T06:12:41;3.03;;;1.75;;
71777;SDS011;59609;52.430;4.668;2023-03-03T06:15:07;2.28;;;2.00;;
71777;SDS011;59609;52.430;4.668;2023-03-03T06:17:34;8.50;;;2.63;;
71777;SDS011;59609;52.430;4.668;2023-03-03T06:20:00;2.60;;;2.15;;
71777;SDS011;59609;52.430;4.668;2023-03-03T06:22:25;3.75;;;2.05;;
71777;SDS011;59609;52.430;4.668;2023-03-03T06:24:50;3.95;;;2.17;;
71777;SDS011;59609;52.430;4.668;2023-03-03T06:27:16;3.55;;;1.95;;
71777;SDS011;59609;52.430;4.668;2023-03-03T06:29:42;3.30;;;1.95;;
71777;SDS011;59609;52.430;4.668;2023-03-03T06:32:08;4.03;;;2.15;;
71777;SDS011;59609;52.430;4.668;2023-03-03T06:34:33;4.43;;;2.47;;
71777;SDS011;59609;52.430;4.668;2023-03-03T06:36:59;3.60;;;2.05;;
71777;SDS011;59609;52.430;4.668;2023-03-03T06:39:24;3.00;;;1.85;;
71777;SDS011;59609;52.430;4.668;2023-03-03T06:41:50;3.00;;;1.90;;
71777;SDS011;59609;52.430;4.668;2023-03-03T06:44:15;4.65;;;2.55;;
71777;SDS011;59609;52.430;4.668;2023-03-03T06:46:41;4.13;;;2.10;;
71777;SDS011;59609;52.430;4.668;2023-03-03T06:49:06;2.88;;;2.20;;
71777;SDS011;59609;52.430;4.668;2023-03-03T06:51:33;4.05;;;2.03;;
71777;SDS011;59609;52.430;4.668;2023-03-03T06:54:33;5.03;;;2.15;;
71777;SDS011;59609;52.430;4.668;2023-03-03T06:56:52;5.40;;;2.53;;
71777;SDS011;59609;52.430;4.668;2023-03-03T06:59:23;3.47;;;2.40;;
71777;SDS011;59609;52.430;4.668;2023-03-03T07:01:50;3.47;;;2.38;;
71777;SDS011;59609;52.430;4.668;2023-03-03T07:09:50;7.18;;;3.10;;
71777;SDS011;59609;52.430;4.668;2023-03-03T07:12:18;3.60;;;2.40;;
71777;SDS011;59609;52.430;4.668;2023-03-03T07:14:55;7.10;;;2.83;;
71777;SDS011;59609;52.430;4.668;2023-03-03T07:17:34;4.00;;;2.65;;
71777;SDS011;59609;52.430;4.668;2023-03-03T07:20:50;5.65;;;2.80;;
71777;SDS011;59609;52.430;4.668;2023-03-03T07:22:59;5.88;;;3.33;;
71777;SDS011;59609;52.430;4.668;2023-03-03T07:25:29;8.45;;;3.83;;
71777;SDS011;59609;52.430;4.668;2023-03-03T07:27:57;11.45;;;4.30;;
71777;SDS011;59609;52.430;4.668;2023-03-03T07:30:26;7.20;;;5.10;;
71777;SDS011;59609;52.430;4.668;2023-03-03T07:32:54;7.32;;;4.88;;
71777;SDS011;59609;52.430;4.668;2023-03-03T07:37:46;4.93;;;3.80;;
71777;SDS011;59609;52.430;4.668;2023-03-03T07:40:34;7.47;;;2.80;;
71777;SDS011;59609;52.430;4.668;2023-03-03T07:43:01;5.13;;;2.55;;
71777;SDS011;59609;52.430;4.668;2023-03-03T07:48:55;3.22;;;1.77;;
71777;SDS011;59609;52.430;4.668;2023-03-03T07:51:28;3.25;;;1.80;;
71777;SDS011;59609;52.430;4.668;2023-03-03T07:59:41;2.17;;;1.50;;
71777;SDS011;59609;52.430;4.668;2023-03-03T08:07:50;2.63;;;1.33;;
71777;SDS011;59609;52.430;4.668;2023-03-03T08:10:35;3.00;;;1.52;;
71777;SDS011;59609;52.430;4.668;2023-03-03T08:13:49;2.00;;;1.48;;
71777;SDS011;59609;52.430;4.668;2023-03-03T08:16:00;2.63;;;1.30;;
71777;SDS011;59609;52.430;4.668;2023-03-03T08:18:44;2.17;;;1.38;;
71777;SDS011;59609;52.430;4.668;2023-03-03T08:21:12;2.72;;;1.38;;
71777;SDS011;59609;52.430;4.668;2023-03-03T08:23:39;2.10;;;1.33;;
71777;SDS011;59609;52.430;4.668;2023-03-03T08:26:05;3.17;;;1.25;;
71777;SDS011;59609;52.430;4.668;2023-03-03T08:28:30;2.47;;;1.10;;
71777;SDS011;59609;52.430;4.668;2023-03-03T08:30:56;3.15;;;1.42;;
71777;SDS011;59609;52.430;4.668;2023-03-03T08:33:22;2.25;;;1.30;;
71777;SDS011;59609;52.430;4.668;2023-03-03T08:35:47;2.47;;;1.00;;
71777;SDS011;59609;52.430;4.668;2023-03-03T08:38:14;1.45;;;1.35;;
71777;SDS011;59609;52.430;4.668;2023-03-03T08:40:41;1.67;;;0.98;;
71777;SDS011;59609;52.430;4.668;2023-03-03T08:43:06;7.32;;;1.65;;
71777;SDS011;59609;52.430;4.668;2023-03-03T08:45:32;1.92;;;1.42;;
71777;SDS011;59609;52.430;4.668;2023-03-03T08:47:58;5.65;;;1.55;;
71777;SDS011;59609;52.430;4.668;2023-03-03T08:50:25;5.40;;;1.42;;
71777;SDS011;59609;52.430;4.668;2023-03-03T08:52:52;3.80;;;1.10;;
71777;SDS011;59609;52.430;4.668;2023-03-03T08:55:18;1.75;;;1.35;;
71777;SDS011;59609;52.430;4.668;2023-03-03T08:57:43;3.78;;;1.17;;
71777;SDS011;59609;52.430;4.668;2023-03-03T09:00:10;3.13;;;1.50;;
71777;SDS011;59609;52.430;4.668;2023-03-03T09:02:38;2.05;;;1.10;;
71777;SDS011;59609;52.430;4.668;2023-03-03T09:05:04;1.40;;;0.90;;
71777;SDS011;59609;52.430;4.668;2023-03-03T09:07:30;2.35;;;1.10;;
71777;SDS011;59609;52.430;4.668;2023-03-03T09:09:55;1.75;;;1.40;;
71777;SDS011;59609;52.430;4.668;2023-03-03T09:12:28;1.88;;;1.23;;
71777;SDS011;59609;52.430;4.668;2023-03-03T09:15:22;4.95;;;1.25;;
71777;SDS011;59609;52.430;4.668;2023-03-03T09:17:58;1.88;;;0.88;;
71777;SDS011;59609;52.430;4.668;2023-03-03T09:28:50;2.03;;;0.73;;
71777;SDS011;59609;52.430;4.668;2023-03-03T09:31:24;1.63;;;0.70;;
71777;SDS011;59609;52.430;4.668;2023-03-03T09:33:51;3.63;;;1.10;;
71777;SDS011;59609;52.430;4.668;2023-03-03T09:36:26;4.28;;;0.73;;
71777;SDS011;59609;52.430;4.668;2023-03-03T09:38:53;1.65;;;0.95;;
71777;SDS011;59609;52.430;4.668;2023-03-03T09:41:54;4.60;;;1.65;;
71777;SDS011;59609;52.430;4.668;2023-03-03T09:52:55;5.32;;;1.33;;
71777;SDS011;59609;52.430;4.668;2023-03-03T10:31:43;2.50;;;0.95;;
71777;SDS011;59609;52.430;4.668;2023-03-03T10:40:25;4.30;;;0.93;;
71777;SDS011;59609;52.430;4.668;2023-03-03T10:46:17;2.10;;;1.05;;
71777;SDS011;59609;52.430;4.668;2023-03-03T11:02:45;1.27;;;0.80;;
71777;SDS011;59609;52.430;4.668;2023-03-03T11:16:24;3.65;;;1.23;;
71777;SDS011;59609;52.430;4.668;2023-03-03T11:22:13;1.15;;;0.82;;
71777;SDS011;59609;52.430;4.668;2023-03-03T11:27:59;3.25;;;0.80;;
71777;SDS011;59609;52.430;4.668;2023-03-03T11:33:14;3.97;;;0.60;;
71777;SDS011;59609;52.430;4.668;2023-03-03T11:35:45;1.67;;;0.77;;
71777;SDS011;59609;52.430;4.668;2023-03-03T11:38:37;2.95;;;0.82;;
71777;SDS011;59609;52.430;4.668;2023-03-03T11:44:39;4.20;;;1.00;;
71777;SDS011;59609;52.430;4.668;2023-03-03T11:47:23;1.17;;;0.80;;
71777;SDS011;59609;52.430;4.668;2023-03-03T11:49:59;1.92;;;0.80;;
71777;SDS011;59609;52.430;4.668;2023-03-03T11:52:49;2.35;;;1.00;;
71777;SDS011;59609;52.430;4.668;2023-03-03T11:55:26;1.77;;;1.00;;
71777;SDS011;59609;52.430;4.668;2023-03-03T12:04:00;1.95;;;0.93;;
71777;SDS011;59609;52.430;4.668;2023-03-03T12:19:59;2.03;;;0.90;;
71777;SDS011;59609;52.430;4.668;2023-03-03T12:23:09;2.53;;;1.10;;
71777;SDS011;59609;52.430;4.668;2023-03-03T12:26:10;3.38;;;1.13;;
71777;SDS011;59609;52.430;4.668;2023-03-03T12:28:54;1.88;;;0.90;;
71777;SDS011;59609;52.430;4.668;2023-03-03T12:44:43;2.50;;;0.93;;
71777;SDS011;59609;52.430;4.668;2023-03-03T12:47:21;6.78;;;1.40;;
71777;SDS011;59609;52.430;4.668;2023-03-03T12:52:53;2.83;;;0.95;;
71777;SDS011;59609;52.430;4.668;2023-03-03T12:56:29;2.72;;;1.00;;
71777;SDS011;59609;52.430;4.668;2023-03-03T12:58:46;3.40;;;1.10;;
71777;SDS011;59609;52.430;4.668;2023-03-03T13:07:00;2.20;;;0.82;;
71777;SDS011;59609;52.430;4.668;2023-03-03T13:19:58;1.20;;;0.70;;
71777;SDS011;59609;52.430;4.668;2023-03-03T13:27:31;1.90;;;1.02;;
71777;SDS011;59609;52.430;4.668;2023-03-03T13:30:14;2.20;;;0.73;;
71777;SDS011;59609;52.430;4.668;2023-03-03T13:32:42;3.22;;;1.13;;
71777;SDS011;59609;52.430;4.668;2023-03-03T13:37:57;2.47;;;0.80;;
71777;SDS011;59609;52.430;4.668;2023-03-03T13:40:27;5.10;;;1.10;;
71777;SDS011;59609;52.430;4.668;2023-03-03T13:43:03;2.22;;;0.80;;
71777;SDS011;59609;52.430;4.668;2023-03-03T13:51:13;3.13;;;0.60;;
71777;SDS011;59609;52.430;4.668;2023-03-03T13:54:01;4.47;;;0.73;;
71777;SDS011;59609;52.430;4.668;2023-03-03T13:57:09;3.03;;;0.60;;
71777;SDS011;59609;52.430;4.668;2023-03-03T14:05:48;1.35;;;0.50;;
71777;SDS011;59609;52.430;4.668;2023-03-03T14:17:08;5.78;;;0.52;;
71777;SDS011;59609;52.430;4.668;2023-03-03T14:19:23;1.70;;;0.52;;
71777;SDS011;59609;52.430;4.668;2023-03-03T14:22:03;1.80;;;0.57;;
71777;SDS011;59609;52.430;4.668;2023-03-03T14:24:53;3.80;;;1.00;;
71777;SDS011;59609;52.430;4.668;2023-03-03T14:32:59;4.22;;;0.60;;
71777;SDS011;59609;52.430;4.668;2023-03-03T14:38:11;6.60;;;0.77;;
71777;SDS011;59609;52.430;4.668;2023-03-03T14:40:47;5.22;;;0.73;;
71777;SDS011;59609;52.430;4.668;2023-03-03T14:45:48;3.05;;;0.70;;
71777;SDS011;59609;52.430;4.668;2023-03-03T14:50:51;15.60;;;1.13;;
71777;SDS011;59609;52.430;4.668;2023-03-03T14:53:42;4.50;;;0.68;;
71777;SDS011;59609;52.430;4.668;2023-03-03T14:56:22;2.70;;;0.60;;
71777;SDS011;59609;52.430;4.668;2023-03-03T15:01:40;2.58;;;0.77;;
71777;SDS011;59609;52.430;4.668;2023-03-03T15:04:27;6.82;;;0.60;;
71777;SDS011;59609;52.430;4.668;2023-03-03T15:06:55;3.92;;;0.63;;
71777;SDS011;59609;52.430;4.668;2023-03-03T15:12:21;4.78;;;0.60;;
71777;SDS011;59609;52.430;4.668;2023-03-03T15:14:49;2.20;;;0.50;;
71777;SDS011;59609;52.430;4.668;2023-03-03T15:26:19;4.90;;;1.13;;
71777;SDS011;59609;52.430;4.668;2023-03-03T15:34:43;5.03;;;0.75;;
71777;SDS011;59609;52.430;4.668;2023-03-03T15:40:19;4.82;;;0.65;;
71777;SDS011;59609;52.430;4.668;2023-03-03T15:45:33;3.83;;;0.60;;
71777;SDS011;59609;52.430;4.668;2023-03-03T16:04:20;10.55;;;0.82;;
71777;SDS011;59609;52.430;4.668;2023-03-03T16:07:12;7.85;;;1.10;;
71777;SDS011;59609;52.430;4.668;2023-03-03T16:12:40;10.38;;;1.50;;
71777;SDS011;59609;52.430;4.668;2023-03-03T16:21:15;5.05;;;0.90;;
71777;SDS011;59609;52.430;4.668;2023-03-03T16:23:47;13.35;;;1.35;;
71777;SDS011;59609;52.430;4.668;2023-03-03T16:31:46;11.40;;;1.40;;
71777;SDS011;59609;52.430;4.668;2023-03-03T16:48:20;6.55;;;1.40;;
71777;SDS011;59609;52.430;4.668;2023-03-03T16:56:13;7.53;;;1.25;;
71777;SDS011;59609;52.430;4.668;2023-03-03T17:10:25;6.82;;;1.17;;
71777;SDS011;59609;52.430;4.668;2023-03-03T17:16:21;9.73;;;1.50;;
71777;SDS011;59609;52.430;4.668;2023-03-03T17:19:12;8.00;;;1.00;;
71777;SDS011;59609;52.430;4.668;2023-03-03T17:41:05;7.55;;;1.20;;
71777;SDS011;59609;52.430;4.668;2023-03-03T17:46:54;9.80;;;1.20;;
71777;SDS011;59609;52.430;4.668;2023-03-03T17:52:25;10.55;;;1.00;;
71777;SDS011;59609;52.430;4.668;2023-03-03T17:55:15;11.65;;;1.33;;
71777;SDS011;59609;52.430;4.668;2023-03-03T18:22:33;15.88;;;1.63;;
71777;SDS011;59609;52.430;4.668;2023-03-03T18:25:11;13.07;;;1.55;;
71777;SDS011;59609;52.430;4.668;2023-03-03T18:27:38;13.27;;;1.30;;
71777;SDS011;59609;52.430;4.668;2023-03-03T18:30:18;13.38;;;1.38;;
71777;SDS011;59609;52.430;4.668;2023-03-03T18:37:56;6.68;;;0.85;;
71777;SDS011;59609;52.430;4.668;2023-03-03T18:40:47;14.45;;;1.98;;
71777;SDS011;59609;52.430;4.668;2023-03-03T18:46:08;13.68;;;1.67;;
71777;SDS011;59609;52.430;4.668;2023-03-03T18:48:48;5.78;;;1.13;;
71777;SDS011;59609;52.430;4.668;2023-03-03T19:04:37;7.78;;;1.65;;
71777;SDS011;59609;52.430;4.668;2023-03-03T19:23:30;8.48;;;1.88;;
71777;SDS011;59609;52.430;4.668;2023-03-03T19:31:52;11.52;;;1.27;;
71777;SDS011;59609;52.430;4.668;2023-03-03T19:55:58;10.40;;;1.73;;
71777;SDS011;59609;52.430;4.668;2023-03-03T19:58:42;5.28;;;1.27;;
71777;SDS011;59609;52.430;4.668;2023-03-03T20:06:51;7.13;;;1.67;;
71777;SDS011;59609;52.430;4.668;2023-03-03T20:09:35;8.25;;;1.35;;
71777;SDS011;59609;52.430;4.668;2023-03-03T20:12:16;12.85;;;2.40;;
71777;SDS011;59609;52.430;4.668;2023-03-03T20:14:59;12.57;;;1.88;;
71777;SDS011;59609;52.430;4.668;2023-03-03T20:22:47;13.37;;;1.80;;
71777;SDS011;59609;52.430;4.668;2023-03-03T20:25:59;11.20;;;1.65;;
71777;SDS011;59609;52.430;4.668;2023-03-03T20:39:57;12.00;;;1.27;;
71777;SDS011;59609;52.430;4.668;2023-03-03T20:48:01;7.22;;;1.05;;
71777;SDS011;59609;52.430;4.668;2023-03-03T20:53:24;11.07;;;1.10;;
71777;SDS011;59609;52.430;4.668;2023-03-03T20:58:56;10.63;;;1.13;;
71777;SDS011;59609;52.430;4.668;2023-03-03T21:07:34;12.38;;;1.15;;
71777;SDS011;59609;52.430;4.668;2023-03-03T21:12:40;10.63;;;1.15;;
71777;SDS011;59609;52.430;4.668;2023-03-03T21:15:10;13.43;;;1.40;;
71777;SDS011;59609;52.430;4.668;2023-03-03T21:17:50;7.82;;;1.50;;
71777;SDS011;59609;52.430;4.668;2023-03-03T21:22:54;15.82;;;1.38;;
71777;SDS011;59609;52.430;4.668;2023-03-03T21:38:59;13.07;;;1.55;;
71777;SDS011;59609;52.430;4.668;2023-03-03T21:41:26;16.23;;;1.90;;
71777;SDS011;59609;52.430;4.668;2023-03-03T21:43:52;9.43;;;1.27;;
71777;SDS011;59609;52.430;4.668;2023-03-03T21:46:18;8.63;;;1.50;;
71777;SDS011;59609;52.430;4.668;2023-03-03T21:48:45;11.32;;;1.80;;
71777;SDS011;59609;52.430;4.668;2023-03-03T21:51:10;13.10;;;1.73;;
71777;SDS011;59609;52.430;4.668;2023-03-03T21:53:38;11.95;;;1.48;;
71777;SDS011;59609;52.430;4.668;2023-03-03T21:56:04;13.48;;;1.27;;
71777;SDS011;59609;52.430;4.668;2023-03-03T21:58:30;7.75;;;1.42;;
71777;SDS011;59609;52.430;4.668;2023-03-03T22:00:55;7.22;;;1.10;;
71777;SDS011;59609;52.430;4.668;2023-03-03T22:03:21;6.82;;;1.17;;
71777;SDS011;59609;52.430;4.668;2023-03-03T22:05:47;8.07;;;1.52;;
71777;SDS011;59609;52.430;4.668;2023-03-03T22:08:13;9.25;;;1.02;;
71777;SDS011;59609;52.430;4.668;2023-03-03T22:10:46;10.60;;;1.08;;
71777;SDS011;59609;52.430;4.668;2023-03-03T22:15:40;11.02;;;1.10;;
71777;SDS011;59609;52.430;4.668;2023-03-03T22:18:05;11.68;;;1.27;;
71777;SDS011;59609;52.430;4.668;2023-03-03T22:20:30;11.43;;;1.55;;
71777;SDS011;59609;52.430;4.668;2023-03-03T22:22:56;11.77;;;1.98;;
71777;SDS011;59609;52.430;4.668;2023-03-03T22:25:21;7.18;;;0.88;;
71777;SDS011;59609;52.430;4.668;2023-03-03T22:27:46;16.38;;;1.63;;
71777;SDS011;59609;52.430;4.668;2023-03-03T22:30:12;12.18;;;1.45;;
71777;SDS011;59609;52.430;4.668;2023-03-03T22:32:37;9.60;;;1.10;;
71777;SDS011;59609;52.430;4.668;2023-03-03T22:35:03;8.05;;;1.75;;
71777;SDS011;59609;52.430;4.668;2023-03-03T22:37:29;12.38;;;1.10;;
71777;SDS011;59609;52.430;4.668;2023-03-03T22:39:54;6.28;;;1.35;;
71777;SDS011;59609;52.430;4.668;2023-03-03T22:42:19;7.82;;;1.63;;
71777;SDS011;59609;52.430;4.668;2023-03-03T22:44:45;9.93;;;2.22;;
71777;SDS011;59609;52.430;4.668;2023-03-03T22:47:10;14.27;;;1.60;;
71777;SDS011;59609;52.430;4.668;2023-03-03T22:49:35;7.38;;;2.00;;
71777;SDS011;59609;52.430;4.668;2023-03-03T22:52:01;7.10;;;1.17;;
71777;SDS011;59609;52.430;4.668;2023-03-03T22:54:26;8.77;;;1.15;;
71777;SDS011;59609;52.430;4.668;2023-03-03T22:56:52;6.25;;;0.98;;
71777;SDS011;59609;52.430;4.668;2023-03-03T22:59:17;13.60;;;1.80;;
71777;SDS011;59609;52.430;4.668;2023-03-03T23:01:42;8.43;;;1.10;;
71777;SDS011;59609;52.430;4.668;2023-03-03T23:04:08;11.05;;;1.15;;
71777;SDS011;59609;52.430;4.668;2023-03-03T23:06:33;7.10;;;1.10;;
71777;SDS011;59609;52.430;4.668;2023-03-03T23:08:58;9.18;;;1.10;;
71777;SDS011;59609;52.430;4.668;2023-03-03T23:11:24;9.60;;;1.27;;
71777;SDS011;59609;52.430;4.668;2023-03-03T23:13:51;5.57;;;1.15;;
71777;SDS011;59609;52.430;4.668;2023-03-03T23:16:16;7.57;;;1.65;;
71777;SDS011;59609;52.430;4.668;2023-03-03T23:18:42;8.50;;;1.40;;
71777;SDS011;59609;52.430;4.668;2023-03-03T23:21:07;12.60;;;1.15;;
71777;SDS011;59609;52.430;4.668;2023-03-03T23:23:32;7.20;;;0.90;;
71777;SDS011;59609;52.430;4.668;2023-03-03T23:25:58;7.47;;;1.05;;
71777;SDS011;59609;52.430;4.668;2023-03-03T23:28:23;8.23;;;1.10;;